Sonderso, Denmark
Current Conditions -  °F | °C
As of 9:20 AM on Monday 22 Dec 2014 (Local Time) from EKSB Reporting Station
Light Rain Light Rain  
Wind Chill: 50°   Ceiling: 800
Heat Index: 50°   Visibility: 4mi
Dew Point: 48°   Wind: 20mph
Humidity: 94%   Direction: 250°WSW
Pressure: 29.53"   Gusts: 31mph
Location:  55.49°N, 10.26°E
Report Text: EKSB 220820Z 25017G27KT 6000 -RA BKN008 10/09 Q1000
Loading
Personal Weather Stations






























Interactive Weather Map New forecast layout! Learn more

10-Day Weather Forecast

Advertisements
Track Severe Weather on mobile